SETU/TUA METAR and TAF weather

Enter ICAO airport designator
Station Type Date Time Source
SETU METAR 2021/02/24 21:00 UTC NOAA

SETU 242100Z 06009KT 9999 VCSH BKN020 13/11 Q1028


Station Type Date Time Source
SETU Decoded METAR 2021/02/24 21:00 UTC NOAA

Tulcan / El Rosal, Ecuador (SETU) 00-49N 077-42W
Feb 24, 2021 - 04:00 PM EST / 2021.02.24 2100 UTC
Wind: from the ENE (060 degrees) at 10 MPH (9 KT):0
Visibility: greater than 7 mile(s):0
Sky conditions: mostly cloudy
Weather: showers in the vicinity
Temperature: 55 F (13 C)
Dew Point: 51 F (11 C)
Relative Humidity: 87%
Pressure (altimeter): 30.36 in. Hg (1028 hPa)
ob: SETU 242100Z 06009KT 9999 VCSH BKN020 13/11 Q1028
cycle: 21

Station Type Date Time Source
SETU TAF UTC NOAA

Error!

Example: see airport list